LRTM - TARGU MURES / TRANSILVANIA - TARGU MURES

Compiled: 21:29:43 on 19/01/2018

Latest METAR/SPECI Reports

METAR LRTM 192100Z AUTO 09003KT 6000 -SHRA FEW060/// 01/00 Q1010=

Previous reports

METAR LRTM 192030Z AUTO 08005KT 6000 FEW060/// BKN083/// 01/00 Q1010 REDZ=
METAR LRTM 192000Z AUTO VRB02KT 6000 -SHRA SCT084/// 01/00 Q1010=
SPECI LRTM 191952Z AUTO 07005KT 5000 -SHRA FEW053/// 01/M00 Q1010=
METAR LRTM 191930Z AUTO 07004KT 8000 -SHRA FEW018/// BKN076/// 01/00 Q1010=

Latest TAF report

TAF LRTM 191400Z 1915/1924 VRB04KT 9999 BKN045 BECMG 1915/1917 5000 -RA BKN010 BKN030 TEMPO 1918/1924 3000 -RASN BKN005 BKN025=

Valid WARNINGS

No valid warnings for LRTM